createdAt,value
2018-11-01T00:00:38.878Z,2.00
2018-11-01T00:03:06.697Z,2.13
2018-11-01T00:05:34.486Z,2.33
2018-11-01T00:08:02.380Z,2.87
2018-11-01T00:10:30.228Z,2.30
2018-11-01T00:12:58.030Z,2.20
2018-11-01T00:15:25.822Z,2.22
2018-11-01T00:17:53.667Z,2.20
2018-11-01T00:20:21.569Z,2.10
2018-11-01T00:22:49.382Z,2.25
2018-11-01T00:25:17.191Z,1.87
2018-11-01T00:27:45.005Z,1.77
2018-11-01T00:30:12.854Z,1.72
2018-11-01T00:32:40.651Z,1.75
2018-11-01T00:35:09.027Z,1.80
2018-11-01T00:37:36.831Z,1.65
2018-11-01T00:40:07.320Z,1.50
2018-11-01T00:42:35.134Z,1.47
2018-11-01T00:45:03.079Z,1.87
2018-11-01T00:47:30.960Z,1.70
2018-11-01T00:49:58.776Z,1.80
2018-11-01T00:52:26.615Z,1.57
2018-11-01T00:54:54.499Z,1.50
2018-11-01T00:57:22.360Z,1.67
2018-11-01T00:59:50.169Z,1.75
2018-11-01T01:02:18.174Z,1.57
2018-11-01T01:04:46.043Z,1.55
2018-11-01T01:07:13.969Z,1.67
2018-11-01T01:09:41.776Z,1.70
2018-11-01T01:12:09.590Z,1.62
2018-11-01T01:14:37.371Z,1.40
2018-11-01T01:17:05.342Z,1.80
2018-11-01T01:19:33.191Z,1.52
2018-11-01T01:22:01.115Z,1.60
2018-11-01T01:24:28.934Z,1.50
2018-11-01T01:26:56.772Z,1.60
2018-11-01T01:29:24.567Z,1.80
2018-11-01T01:31:52.397Z,1.82
2018-11-01T01:34:20.215Z,2.00
2018-11-01T01:36:47.791Z,1.60
2018-11-01T01:39:15.361Z,2.17
2018-11-01T01:41:42.904Z,2.67
2018-11-01T01:44:10.596Z,3.20
2018-11-01T01:46:38.192Z,2.90
2018-11-01T01:49:06.513Z,2.60
2018-11-01T01:51:34.106Z,2.75
2018-11-01T01:54:01.963Z,3.12
2018-11-01T01:56:29.799Z,2.65
2018-11-01T01:58:57.597Z,2.80
2018-11-01T02:01:25.345Z,3.40
2018-11-01T02:03:53.202Z,3.12
2018-11-01T02:06:21.015Z,3.02
2018-11-01T02:08:48.834Z,3.00
2018-11-01T02:11:16.673Z,3.50
2018-11-01T02:13:44.518Z,2.85
2018-11-01T02:16:12.333Z,3.20
2018-11-01T02:18:40.192Z,3.20
2018-11-01T02:21:07.910Z,3.00
2018-11-01T02:23:35.734Z,2.72
2018-11-01T02:26:03.656Z,2.95
2018-11-01T02:28:31.492Z,3.20
2018-11-01T02:30:59.285Z,3.10
2018-11-01T02:33:27.147Z,3.50
2018-11-01T02:35:54.989Z,3.65
2018-11-01T02:38:22.823Z,4.17
2018-11-01T02:40:50.654Z,3.12
2018-11-01T02:43:18.602Z,4.05
2018-11-01T02:45:46.383Z,3.50
2018-11-01T02:48:14.230Z,3.37
2018-11-01T02:50:42.013Z,3.90
2018-11-01T02:53:09.851Z,3.12
2018-11-01T02:55:37.639Z,4.10
2018-11-01T02:58:05.832Z,3.55
2018-11-01T03:00:33.689Z,3.67
2018-11-01T03:03:01.539Z,3.98
2018-11-01T03:05:29.131Z,3.42
2018-11-01T03:07:56.749Z,3.45
2018-11-01T03:10:24.378Z,4.05
2018-11-01T03:12:51.967Z,4.95
2018-11-01T03:15:19.567Z,3.62
2018-11-01T03:17:47.163Z,3.60
2018-11-01T03:20:14.872Z,4.20
2018-11-01T03:22:42.523Z,3.60
2018-11-01T03:25:10.435Z,3.95
2018-11-01T03:27:38.207Z,4.20
2018-11-01T03:30:06.478Z,3.60
2018-11-01T03:32:34.126Z,3.70
2018-11-01T03:35:01.765Z,3.60
2018-11-01T03:37:29.349Z,3.70
2018-11-01T03:40:00.693Z,4.03
2018-11-01T03:42:28.315Z,3.62
2018-11-01T03:44:56.012Z,3.50
2018-11-01T03:47:23.665Z,3.65
2018-11-01T03:49:51.262Z,3.10
2018-11-01T03:52:19.026Z,3.15
2018-11-01T03:54:46.583Z,3.45
2018-11-01T03:57:14.156Z,3.47
2018-11-01T03:59:41.746Z,3.40
2018-11-01T04:02:09.338Z,3.12
2018-11-01T04:04:37.035Z,3.55
2018-11-01T04:07:04.693Z,3.02
2018-11-01T04:09:32.277Z,3.40
2018-11-01T04:11:59.896Z,3.10
2018-11-01T04:14:27.487Z,3.30
2018-11-01T04:16:55.127Z,3.15
2018-11-01T04:19:22.715Z,2.92
2018-11-01T04:22:06.719Z,3.50
2018-11-01T04:24:35.523Z,3.00
2018-11-01T04:27:03.640Z,3.58
2018-11-01T04:29:31.674Z,3.12
2018-11-01T04:31:59.262Z,3.22
2018-11-01T04:34:26.844Z,2.60
2018-11-01T04:36:54.421Z,3.25
2018-11-01T04:39:22.004Z,3.30
2018-11-01T04:41:49.591Z,3.40
2018-11-01T04:44:17.295Z,3.30
2018-11-01T04:46:44.887Z,3.42
2018-11-01T04:49:12.480Z,2.90
2018-11-01T04:51:40.419Z,3.58
2018-11-01T04:54:08.043Z,3.00
2018-11-01T04:56:35.604Z,3.20
2018-11-01T04:59:03.276Z,2.90
2018-11-01T05:01:30.852Z,2.40
2018-11-01T05:03:58.428Z,3.00
2018-11-01T05:06:26.027Z,2.58
2018-11-01T05:08:53.622Z,2.50
2018-11-01T05:11:21.311Z,2.77
2018-11-01T05:13:48.903Z,2.25
2018-11-01T05:16:16.655Z,2.65
2018-11-01T05:18:44.894Z,2.30
2018-11-01T05:21:12.619Z,2.25
2018-11-01T05:23:40.428Z,2.40
2018-11-01T05:26:07.972Z,2.30
2018-11-01T05:28:35.834Z,2.77
2018-11-01T05:31:03.467Z,2.12
2018-11-01T05:33:31.089Z,2.65
2018-11-01T05:35:58.685Z,2.10
2018-11-01T05:38:26.263Z,2.70
2018-11-01T05:40:53.853Z,1.80
2018-11-01T05:43:25.857Z,2.20
2018-11-01T05:45:54.371Z,2.17
2018-11-01T05:48:22.037Z,1.90
2018-11-01T05:50:49.759Z,2.05
2018-11-01T05:53:17.486Z,2.20
2018-11-01T05:55:45.120Z,2.33
2018-11-01T05:58:12.661Z,2.47
2018-11-01T06:00:40.395Z,2.25
2018-11-01T06:03:07.953Z,2.20
2018-11-01T06:05:35.536Z,2.30
2018-11-01T06:08:12.579Z,2.02
2018-11-01T06:10:40.362Z,2.47
2018-11-01T06:13:07.973Z,2.50
2018-11-01T06:15:35.573Z,2.30
2018-11-01T06:18:03.298Z,2.50
2018-11-01T06:20:42.231Z,1.90
2018-11-01T06:23:09.916Z,2.50
2018-11-01T06:25:37.586Z,2.42
2018-11-01T06:28:05.308Z,2.27
2018-11-01T06:30:33.219Z,2.20
2018-11-01T06:33:00.911Z,2.22
2018-11-01T06:35:34.252Z,2.30
2018-11-01T06:38:02.244Z,2.80
2018-11-01T06:40:30.133Z,2.58
2018-11-01T06:42:58.067Z,2.62
2018-11-01T06:45:25.825Z,2.45
2018-11-01T06:47:53.695Z,2.58
2018-11-01T06:50:21.799Z,2.45
2018-11-01T06:52:49.756Z,2.20
2018-11-01T06:55:17.817Z,2.65
2018-11-01T06:57:45.763Z,2.50
2018-11-01T07:00:14.624Z,2.40
2018-11-01T07:02:42.672Z,2.60
2018-11-01T07:05:10.683Z,2.50
2018-11-01T07:07:39.033Z,2.72
2018-11-01T07:10:08.884Z,2.42
2018-11-01T07:12:36.953Z,2.37
2018-11-01T07:15:06.132Z,2.40
2018-11-01T07:17:34.227Z,2.60
2018-11-01T07:20:02.230Z,2.55
2018-11-01T07:22:30.173Z,2.10
2018-11-01T07:24:58.035Z,2.37
2018-11-01T07:27:26.238Z,2.62
2018-11-01T07:29:54.071Z,2.50
2018-11-01T07:32:21.929Z,2.22
2018-11-01T07:34:49.847Z,2.47
2018-11-01T07:37:17.814Z,2.20
2018-11-01T07:39:45.726Z,2.12
2018-11-01T07:42:13.563Z,2.33
2018-11-01T07:44:41.421Z,2.58
2018-11-01T07:47:09.250Z,2.52
2018-11-01T07:49:37.083Z,2.47
2018-11-01T07:52:04.980Z,2.35
2018-11-01T07:54:33.149Z,3.05
2018-11-01T07:57:01.034Z,2.85
2018-11-01T07:59:28.912Z,2.70
2018-11-01T08:01:56.732Z,2.80
2018-11-01T08:04:24.574Z,3.12
2018-11-01T08:06:52.426Z,3.12
2018-11-01T08:09:20.301Z,3.52
2018-11-01T08:11:48.417Z,4.15
2018-11-01T08:14:16.255Z,3.40
2018-11-01T08:16:44.148Z,3.37
2018-11-01T08:19:11.947Z,3.25
2018-11-01T08:21:39.912Z,3.35
2018-11-01T08:24:07.681Z,3.85
2018-11-01T08:26:35.523Z,4.33
2018-11-01T08:29:03.435Z,3.75
2018-11-01T08:31:32.557Z,3.90
2018-11-01T08:34:00.421Z,4.20
2018-11-01T08:36:28.064Z,4.30
2018-11-01T08:38:55.619Z,4.15
2018-11-01T08:41:23.237Z,3.35
2018-11-01T08:43:53.315Z,4.65
2018-11-01T08:46:20.891Z,4.50
2018-11-01T08:48:48.502Z,4.45
2018-11-01T08:51:16.145Z,4.12
2018-11-01T08:53:43.789Z,4.08
2018-11-01T08:56:11.328Z,4.25
2018-11-01T08:58:38.951Z,5.17
2018-11-01T09:01:06.511Z,5.65
2018-11-01T09:03:34.024Z,5.10
2018-11-01T09:06:01.533Z,5.20
2018-11-01T09:08:29.081Z,5.83
2018-11-01T09:10:56.604Z,5.22
2018-11-01T09:13:24.217Z,5.70
2018-11-01T09:15:51.711Z,5.78
2018-11-01T09:18:19.608Z,5.20
2018-11-01T09:20:47.464Z,5.25
2018-11-01T09:23:15.337Z,5.78
2018-11-01T09:25:43.237Z,5.90
2018-11-01T09:28:11.071Z,5.58
2018-11-01T09:30:38.996Z,5.55
2018-11-01T09:33:06.798Z,6.10
2018-11-01T09:35:34.610Z,6.45
2018-11-01T09:38:02.406Z,5.78
2018-11-01T09:40:30.307Z,6.00
2018-11-01T09:42:58.180Z,5.67
2018-11-01T09:45:26.250Z,6.00
2018-11-01T09:47:54.097Z,5.20
2018-11-01T09:50:21.897Z,5.28
2018-11-01T09:52:49.676Z,5.62
2018-11-01T09:55:17.681Z,5.42
2018-11-01T09:57:45.675Z,6.40
2018-11-01T10:00:14.342Z,7.05
2018-11-01T10:02:42.876Z,5.80
2018-11-01T10:05:10.994Z,5.90
2018-11-01T10:07:39.221Z,5.95
2018-11-01T10:10:09.109Z,6.35
2018-11-01T10:12:37.397Z,6.95
2018-11-01T10:15:05.706Z,6.00
2018-11-01T10:17:34.165Z,6.35
2018-11-01T10:20:01.785Z,6.67
2018-11-01T10:22:29.841Z,6.65
2018-11-01T10:24:57.843Z,6.03
2018-11-01T10:27:25.657Z,5.60
2018-11-01T10:29:53.532Z,5.30
2018-11-01T10:32:21.377Z,6.45
2018-11-01T10:34:49.187Z,5.72
2018-11-01T10:37:17.107Z,6.08
2018-11-01T10:39:45.016Z,6.35
2018-11-01T10:42:12.872Z,6.05
2018-11-01T10:44:40.830Z,6.65
2018-11-01T10:47:08.654Z,6.70
2018-11-01T10:49:36.556Z,7.03
2018-11-01T10:52:04.597Z,5.90
2018-11-01T10:54:32.471Z,6.10
2018-11-01T10:57:00.328Z,6.78
2018-11-01T10:59:28.209Z,8.00
2018-11-01T11:02:28.458Z,7.35
2018-11-01T11:04:56.295Z,8.58
2018-11-01T11:07:24.288Z,7.80
2018-11-01T11:09:57.034Z,7.85
2018-11-01T11:12:24.802Z,7.62
2018-11-01T11:14:52.371Z,7.40
2018-11-01T11:17:19.928Z,7.28
2018-11-01T11:19:47.557Z,6.85
2018-11-01T11:22:15.157Z,6.42
2018-11-01T11:24:42.775Z,5.75
2018-11-01T11:27:11.705Z,4.78
2018-11-01T11:29:39.529Z,6.30
2018-11-01T11:32:07.235Z,5.57
2018-11-01T11:34:34.891Z,5.27
2018-11-01T11:37:02.836Z,5.60
2018-11-01T11:39:30.469Z,5.30
2018-11-01T11:41:58.043Z,6.60
2018-11-01T11:44:25.599Z,6.40
2018-11-01T11:46:53.259Z,6.80
2018-11-01T11:49:20.821Z,6.63
2018-11-01T11:51:48.694Z,6.00
2018-11-01T11:54:16.656Z,5.83
2018-11-01T11:56:44.322Z,6.27
2018-11-01T11:59:12.022Z,6.70
2018-11-01T12:01:39.633Z,7.03
2018-11-01T12:04:07.632Z,7.27
2018-11-01T12:06:35.233Z,7.17
2018-11-01T12:09:03.411Z,7.80
2018-11-01T12:11:31.003Z,8.10
2018-11-01T12:13:59.736Z,9.07
2018-11-01T12:16:28.303Z,8.07
2018-11-01T12:18:56.016Z,6.80
2018-11-01T12:21:23.651Z,6.23
2018-11-01T12:23:51.314Z,5.40
2018-11-01T12:26:19.733Z,4.70
2018-11-01T12:28:47.688Z,5.40
2018-11-01T12:31:15.182Z,4.47
2018-11-01T12:33:43.252Z,4.40
2018-11-01T12:36:10.932Z,5.70
2018-11-01T12:38:38.574Z,4.90
2018-11-01T12:41:06.278Z,5.47
2018-11-01T12:43:34.029Z,5.50
2018-11-01T12:46:01.693Z,5.73
2018-11-01T12:48:29.396Z,7.00
2018-11-01T12:50:57.205Z,6.30
2018-11-01T12:53:24.846Z,6.73
2018-11-01T12:55:52.450Z,6.27
2018-11-01T12:58:20.087Z,7.40
2018-11-01T13:00:47.780Z,6.50
2018-11-01T13:03:16.313Z,7.60
2018-11-01T13:05:44.078Z,6.70
2018-11-01T13:08:11.699Z,7.43
2018-11-01T13:10:39.591Z,8.07
2018-11-01T13:13:07.261Z,9.90
2018-11-01T13:15:35.023Z,10.40
2018-11-01T13:18:02.978Z,9.60
2018-11-01T13:20:30.664Z,9.73
2018-11-01T13:22:58.412Z,9.10
2018-11-01T13:25:26.152Z,6.97
2018-11-01T13:27:53.981Z,6.20
2018-11-01T13:30:22.044Z,6.67
2018-11-01T13:32:49.816Z,5.00
2018-11-01T13:35:17.663Z,4.00
2018-11-01T13:37:45.430Z,4.40
2018-11-01T13:40:13.571Z,3.70
2018-11-01T13:42:41.503Z,3.50
2018-11-01T13:45:09.645Z,4.43
2018-11-01T13:47:37.586Z,3.33
2018-11-01T13:50:06.139Z,4.80
2018-11-01T13:52:33.768Z,4.30
2018-11-01T13:55:01.456Z,3.83
2018-11-01T13:57:29.239Z,4.37
2018-11-01T13:59:57.155Z,4.43
2018-11-01T14:02:25.017Z,3.97
2018-11-01T14:04:52.698Z,4.10
2018-11-01T14:07:20.711Z,4.13
2018-11-01T14:09:48.454Z,5.00
2018-11-01T14:12:16.745Z,4.60
2018-11-01T14:14:46.289Z,4.50
2018-11-01T14:17:13.979Z,4.73
2018-11-01T14:19:43.150Z,5.07
2018-11-01T14:22:11.505Z,4.83
2018-11-01T14:24:46.371Z,4.80
2018-11-01T14:27:14.125Z,5.40
2018-11-01T14:29:41.692Z,5.10
2018-11-01T14:32:09.461Z,6.13
2018-11-01T14:34:37.210Z,5.40
2018-11-01T14:37:05.089Z,6.37
2018-11-01T14:39:33.003Z,6.57
2018-11-01T14:42:00.602Z,6.50
2018-11-01T14:44:28.328Z,5.53
2018-11-01T14:46:56.081Z,5.50
2018-11-01T14:49:23.813Z,5.73
2018-11-01T14:51:51.605Z,6.80
2018-11-01T14:54:20.307Z,6.17
2018-11-01T14:56:48.607Z,5.47
2018-11-01T14:59:16.124Z,5.63
2018-11-01T15:01:43.002Z,5.30
2018-11-01T15:04:10.761Z,5.97
2018-11-01T15:06:38.611Z,5.77
2018-11-01T15:09:08.661Z,5.75
2018-11-01T15:11:37.176Z,6.10
2018-11-01T15:14:09.956Z,6.45
2018-11-01T15:16:49.095Z,6.37
2018-11-01T15:19:17.214Z,5.35
2018-11-01T15:21:44.779Z,5.35
2018-11-01T15:24:12.404Z,6.20
2018-11-01T15:26:39.993Z,5.62
2018-11-01T15:29:08.341Z,5.67
2018-11-01T15:31:36.082Z,5.75
2018-11-01T15:34:04.053Z,5.95
2018-11-01T15:36:31.652Z,5.20
2018-11-01T15:38:59.513Z,5.40
2018-11-01T15:41:27.195Z,6.22
2018-11-01T15:43:54.931Z,5.95
2018-11-01T15:46:23.769Z,5.60
2018-11-01T15:49:00.234Z,6.90
2018-11-01T15:51:32.343Z,6.08
2018-11-01T15:54:09.595Z,5.90
2018-11-01T15:56:51.706Z,6.10
2018-11-01T15:59:23.258Z,6.37
2018-11-01T16:01:51.086Z,6.67
2018-11-01T16:04:18.766Z,7.28
2018-11-01T16:06:46.203Z,7.37
2018-11-01T16:09:13.750Z,6.70
2018-11-01T16:11:41.720Z,7.45
2018-11-01T16:14:09.780Z,8.33
2018-11-01T16:16:37.564Z,8.93
2018-11-01T16:19:05.372Z,6.65
2018-11-01T16:21:32.738Z,6.50
2018-11-01T16:24:00.250Z,7.53
2018-11-01T16:26:27.684Z,7.53
2018-11-01T16:28:55.123Z,6.65
2018-11-01T16:31:22.447Z,8.05
2018-11-01T16:33:49.799Z,7.53
2018-11-01T16:36:21.099Z,7.45
2018-11-01T16:38:54.889Z,6.97
2018-11-01T16:41:24.221Z,6.70
2018-11-01T16:43:53.051Z,7.28
2018-11-01T16:46:28.153Z,6.85
2018-11-01T16:48:56.083Z,6.25
2018-11-01T16:51:24.185Z,6.95
2018-11-01T16:53:57.147Z,6.95
2018-11-01T16:56:26.677Z,6.90
2018-11-01T16:58:59.283Z,7.00
2018-11-01T17:01:32.252Z,6.40
2018-11-01T17:04:02.537Z,6.95
2018-11-01T17:06:31.654Z,6.60
2018-11-01T17:09:00.250Z,6.97
2018-11-01T17:11:29.362Z,6.60
2018-11-01T17:13:59.080Z,6.28
2018-11-01T17:16:29.904Z,6.22
2018-11-01T17:18:59.814Z,6.05
2018-11-01T17:21:27.600Z,6.08
2018-11-01T17:23:55.434Z,6.20
2018-11-01T17:26:23.454Z,6.42
2018-11-01T17:28:52.455Z,7.05
2018-11-01T17:31:20.436Z,6.78
2018-11-01T17:33:48.304Z,6.90
2018-11-01T17:36:16.305Z,6.90
2018-11-01T17:38:43.848Z,7.33
2018-11-01T17:41:12.289Z,7.22
2018-11-01T17:43:40.327Z,7.80
2018-11-01T17:46:08.865Z,7.53
2018-11-01T17:48:36.933Z,7.65
2018-11-01T17:51:06.184Z,6.72
2018-11-01T17:53:34.296Z,8.28
2018-11-01T17:56:02.044Z,7.45
2018-11-01T17:58:30.545Z,6.90
2018-11-01T18:00:58.445Z,6.95
2018-11-01T18:03:26.113Z,6.80
2018-11-01T18:05:54.715Z,6.40
2018-11-01T18:08:24.307Z,7.90
2018-11-01T18:10:52.073Z,5.72
2018-11-01T18:13:19.712Z,6.70
2018-11-01T18:15:47.469Z,6.42
2018-11-01T18:18:15.192Z,7.05
2018-11-01T18:20:44.156Z,6.42
2018-11-01T18:23:12.225Z,6.53
2018-11-01T18:25:45.662Z,6.55
2018-11-01T18:28:13.152Z,7.20
2018-11-01T18:30:40.804Z,8.08
2018-11-01T18:33:08.583Z,9.05
2018-11-01T18:35:36.445Z,8.23
2018-11-01T18:38:04.575Z,7.00
2018-11-01T18:40:32.383Z,7.00
2018-11-01T18:43:00.084Z,7.75
2018-11-01T18:45:28.079Z,6.33
2018-11-01T18:47:55.847Z,7.10
2018-11-01T18:50:23.576Z,6.95
2018-11-01T18:52:51.333Z,6.70
2018-11-01T18:55:19.303Z,6.10
2018-11-01T18:57:46.929Z,6.20
2018-11-01T19:00:15.675Z,7.28
2018-11-01T19:02:43.230Z,7.42
2018-11-01T19:05:11.608Z,6.92
2018-11-01T19:07:39.730Z,7.20
2018-11-01T19:10:08.465Z,7.55
2018-11-01T19:12:36.335Z,7.20
2018-11-01T19:15:05.191Z,7.17
2018-11-01T19:17:32.814Z,7.50
2018-11-01T19:20:00.453Z,6.85
2018-11-01T19:22:27.863Z,6.50
2018-11-01T19:24:55.336Z,5.90
2018-11-01T19:27:23.133Z,5.70
2018-11-01T19:29:51.167Z,5.90
2018-11-01T19:32:18.962Z,7.70
2018-11-01T19:34:46.393Z,6.70
2018-11-01T19:37:13.882Z,5.75
2018-11-01T19:39:42.410Z,5.97
2018-11-01T19:42:09.851Z,5.80
2018-11-01T19:44:37.327Z,5.78
2018-11-01T19:47:05.083Z,5.70
2018-11-01T19:49:32.478Z,5.28
2018-11-01T19:51:59.874Z,5.45
2018-11-01T19:54:27.545Z,5.00
2018-11-01T19:56:54.863Z,4.75
2018-11-01T19:59:22.205Z,5.10
2018-11-01T20:01:50.343Z,5.10
2018-11-01T20:04:18.141Z,5.40
2018-11-01T20:06:45.584Z,5.08
2018-11-01T20:09:19.994Z,4.58
2018-11-01T20:11:53.504Z,4.90
2018-11-01T20:14:26.595Z,4.47
2018-11-01T20:16:57.112Z,4.33
2018-11-01T20:19:25.271Z,3.98
2018-11-01T20:21:52.763Z,4.50
2018-11-01T20:24:21.446Z,4.80
2018-11-01T20:26:49.132Z,4.25
2018-11-01T20:29:16.693Z,4.45
2018-11-01T20:31:44.830Z,4.30
2018-11-01T20:34:12.168Z,4.42
2018-11-01T20:36:39.591Z,4.37
2018-11-01T20:39:09.393Z,4.53
2018-11-01T20:41:36.841Z,4.45
2018-11-01T20:44:09.729Z,4.62
2018-11-01T20:46:37.247Z,4.50
2018-11-01T20:49:05.007Z,4.58
2018-11-01T20:51:32.328Z,5.10
2018-11-01T20:54:00.181Z,5.20
2018-11-01T20:56:30.085Z,5.92
2018-11-01T20:58:58.037Z,5.17
2018-11-01T21:01:25.516Z,5.47
2018-11-01T21:03:52.947Z,4.67
2018-11-01T21:06:20.777Z,5.70
2018-11-01T21:08:48.484Z,5.28
2018-11-01T21:11:16.042Z,6.17
2018-11-01T21:13:44.231Z,5.90
2018-11-01T21:16:11.853Z,5.67
2018-11-01T21:18:39.568Z,6.20
2018-11-01T21:21:09.686Z,5.85
2018-11-01T21:23:37.225Z,5.67
2018-11-01T21:26:04.975Z,6.45
2018-11-01T21:28:32.425Z,6.80
2018-11-01T21:31:00.620Z,7.50
2018-11-01T21:33:28.146Z,7.40
2018-11-01T21:35:55.699Z,7.75
2018-11-01T21:38:23.155Z,7.45
2018-11-01T21:40:50.866Z,7.85
2018-11-01T21:43:18.496Z,7.33
2018-11-01T21:45:46.227Z,7.35
2018-11-01T21:48:13.674Z,7.92
2018-11-01T21:50:41.721Z,8.75
2018-11-01T21:53:09.751Z,7.50
2018-11-01T21:55:39.961Z,7.65
2018-11-01T21:58:10.311Z,7.05
2018-11-01T22:00:38.119Z,8.65
2018-11-01T22:03:07.966Z,7.87
2018-11-01T22:06:04.983Z,7.60
2018-11-01T22:08:32.932Z,7.47
2018-11-01T22:11:02.886Z,8.18
2018-11-01T22:13:53.244Z,7.92
2018-11-01T22:16:28.864Z,7.22
2018-11-01T22:18:58.774Z,7.37
2018-11-01T22:21:32.155Z,7.97
2018-11-01T22:24:04.137Z,6.42
2018-11-01T22:26:34.889Z,6.35
2018-11-01T22:29:11.849Z,7.60
2018-11-01T22:31:42.071Z,6.80
2018-11-01T22:36:51.942Z,6.37
2018-11-01T22:40:18.663Z,7.53
2018-11-01T22:42:46.817Z,6.80
2018-11-01T22:45:18.622Z,7.67
2018-11-01T22:47:47.432Z,7.15
2018-11-01T22:50:18.503Z,6.95
2018-11-01T22:52:48.405Z,6.58
2018-11-01T22:55:16.095Z,6.70
2018-11-01T22:57:43.720Z,6.75
2018-11-01T23:00:12.956Z,7.12
2018-11-01T23:02:41.891Z,6.95
2018-11-01T23:05:12.321Z,6.58
2018-11-01T23:07:39.910Z,6.92
2018-11-01T23:10:11.233Z,7.33
2018-11-01T23:12:42.131Z,6.78
2018-11-01T23:15:10.999Z,7.53
2018-11-01T23:17:39.918Z,7.53
2018-11-01T23:20:07.875Z,7.25
2018-11-01T23:22:35.450Z,6.62
2018-11-01T23:25:03.069Z,6.90
2018-11-01T23:27:33.067Z,7.63
2018-11-01T23:30:00.654Z,6.80
2018-11-01T23:32:28.246Z,6.80
2018-11-01T23:34:56.791Z,6.37
2018-11-01T23:37:30.139Z,6.65
2018-11-01T23:40:04.407Z,6.42
2018-11-01T23:42:37.855Z,7.12
2018-11-01T23:45:11.049Z,6.42
2018-11-01T23:47:44.901Z,7.33
2018-11-01T23:51:17.926Z,6.80
2018-11-01T23:53:50.540Z,7.05
2018-11-01T23:56:18.481Z,6.22
2018-11-01T23:58:46.022Z,6.53
